sensor_id;sensor_type;location;lat;lon;timestamp;P1;durP1;ratioP1;P2;durP2;ratioP2
66751;SDS011;53663;42.676;23.238;2023-12-07T00:00:30;40.80;;;19.08;;
66751;SDS011;53663;42.676;23.238;2023-12-07T00:02:56;40.25;;;19.23;;
66751;SDS011;53663;42.676;23.238;2023-12-07T00:05:21;38.83;;;18.67;;
66751;SDS011;53663;42.676;23.238;2023-12-07T00:07:46;40.95;;;19.17;;
66751;SDS011;53663;42.676;23.238;2023-12-07T00:10:12;42.35;;;20.20;;
66751;SDS011;53663;42.676;23.238;2023-12-07T00:12:37;40.17;;;20.02;;
66751;SDS011;53663;42.676;23.238;2023-12-07T00:15:03;43.38;;;19.30;;
66751;SDS011;53663;42.676;23.238;2023-12-07T00:17:29;41.67;;;18.60;;
66751;SDS011;53663;42.676;23.238;2023-12-07T00:19:55;35.55;;;17.88;;
66751;SDS011;53663;42.676;23.238;2023-12-07T00:22:20;37.97;;;18.17;;
66751;SDS011;53663;42.676;23.238;2023-12-07T00:24:46;40.80;;;18.63;;
66751;SDS011;53663;42.676;23.238;2023-12-07T00:27:12;36.20;;;17.92;;
66751;SDS011;53663;42.676;23.238;2023-12-07T00:29:37;32.85;;;16.90;;
66751;SDS011;53663;42.676;23.238;2023-12-07T00:32:04;40.55;;;18.38;;
66751;SDS011;53663;42.676;23.238;2023-12-07T00:34:30;37.53;;;18.23;;
66751;SDS011;53663;42.676;23.238;2023-12-07T00:36:55;39.10;;;20.73;;
66751;SDS011;53663;42.676;23.238;2023-12-07T00:39:21;47.85;;;21.50;;
66751;SDS011;53663;42.676;23.238;2023-12-07T00:41:46;42.17;;;19.80;;
66751;SDS011;53663;42.676;23.238;2023-12-07T00:44:15;41.75;;;19.92;;
66751;SDS011;53663;42.676;23.238;2023-12-07T00:46:41;38.05;;;20.67;;
66751;SDS011;53663;42.676;23.238;2023-12-07T00:49:06;44.88;;;21.00;;
66751;SDS011;53663;42.676;23.238;2023-12-07T00:51:32;39.08;;;19.42;;
66751;SDS011;53663;42.676;23.238;2023-12-07T00:53:57;45.17;;;20.20;;
66751;SDS011;53663;42.676;23.238;2023-12-07T00:56:23;45.40;;;20.02;;
66751;SDS011;53663;42.676;23.238;2023-12-07T00:58:49;40.05;;;18.77;;
66751;SDS011;53663;42.676;23.238;2023-12-07T01:01:15;41.08;;;20.38;;
66751;SDS011;53663;42.676;23.238;2023-12-07T01:03:41;46.83;;;20.23;;
66751;SDS011;53663;42.676;23.238;2023-12-07T01:06:06;36.25;;;18.42;;
66751;SDS011;53663;42.676;23.238;2023-12-07T01:08:32;35.42;;;18.95;;
66751;SDS011;53663;42.676;23.238;2023-12-07T01:10:58;37.70;;;19.60;;
66751;SDS011;53663;42.676;23.238;2023-12-07T01:13:24;33.50;;;18.83;;
66751;SDS011;53663;42.676;23.238;2023-12-07T01:15:49;39.88;;;18.98;;
66751;SDS011;53663;42.676;23.238;2023-12-07T01:18:15;34.10;;;17.77;;
66751;SDS011;53663;42.676;23.238;2023-12-07T01:20:41;36.95;;;19.55;;
66751;SDS011;53663;42.676;23.238;2023-12-07T01:23:07;36.80;;;18.67;;
66751;SDS011;53663;42.676;23.238;2023-12-07T01:25:34;36.05;;;19.05;;
66751;SDS011;53663;42.676;23.238;2023-12-07T01:27:59;32.63;;;17.90;;
66751;SDS011;53663;42.676;23.238;2023-12-07T01:30:25;36.45;;;18.77;;
66751;SDS011;53663;42.676;23.238;2023-12-07T01:32:51;31.67;;;17.77;;
66751;SDS011;53663;42.676;23.238;2023-12-07T01:35:16;32.15;;;17.58;;
66751;SDS011;53663;42.676;23.238;2023-12-07T01:37:42;31.63;;;16.95;;
66751;SDS011;53663;42.676;23.238;2023-12-07T01:40:07;29.70;;;15.23;;
66751;SDS011;53663;42.676;23.238;2023-12-07T01:42:35;26.95;;;16.20;;
66751;SDS011;53663;42.676;23.238;2023-12-07T01:45:04;26.65;;;15.93;;
66751;SDS011;53663;42.676;23.238;2023-12-07T01:47:30;22.10;;;13.88;;
66751;SDS011;53663;42.676;23.238;2023-12-07T01:49:57;22.77;;;13.93;;
66751;SDS011;53663;42.676;23.238;2023-12-07T01:52:25;23.65;;;13.65;;
66751;SDS011;53663;42.676;23.238;2023-12-07T01:54:53;23.38;;;14.07;;
66751;SDS011;53663;42.676;23.238;2023-12-07T01:57:19;22.80;;;13.30;;
66751;SDS011;53663;42.676;23.238;2023-12-07T01:59:45;22.02;;;13.35;;
66751;SDS011;53663;42.676;23.238;2023-12-07T02:02:10;24.30;;;13.43;;
66751;SDS011;53663;42.676;23.238;2023-12-07T02:04:36;24.58;;;14.82;;
66751;SDS011;53663;42.676;23.238;2023-12-07T02:07:02;28.75;;;15.23;;
66751;SDS011;53663;42.676;23.238;2023-12-07T02:09:29;26.63;;;15.20;;
66751;SDS011;53663;42.676;23.238;2023-12-07T02:11:54;30.63;;;15.52;;
66751;SDS011;53663;42.676;23.238;2023-12-07T02:14:20;34.53;;;17.27;;
66751;SDS011;53663;42.676;23.238;2023-12-07T02:16:51;34.22;;;17.95;;
66751;SDS011;53663;42.676;23.238;2023-12-07T02:22:02;33.03;;;18.05;;
66751;SDS011;53663;42.676;23.238;2023-12-07T02:24:33;31.95;;;17.05;;
66751;SDS011;53663;42.676;23.238;2023-12-07T02:27:01;33.00;;;17.60;;
66751;SDS011;53663;42.676;23.238;2023-12-07T02:29:27;27.77;;;16.30;;
66751;SDS011;53663;42.676;23.238;2023-12-07T02:31:52;25.42;;;15.10;;
66751;SDS011;53663;42.676;23.238;2023-12-07T02:34:18;26.73;;;15.05;;
66751;SDS011;53663;42.676;23.238;2023-12-07T02:36:44;26.30;;;15.88;;
66751;SDS011;53663;42.676;23.238;2023-12-07T02:39:13;29.38;;;15.57;;
66751;SDS011;53663;42.676;23.238;2023-12-07T02:41:39;25.70;;;15.10;;
66751;SDS011;53663;42.676;23.238;2023-12-07T02:44:06;26.75;;;15.82;;
66751;SDS011;53663;42.676;23.238;2023-12-07T02:46:32;29.83;;;16.95;;
66751;SDS011;53663;42.676;23.238;2023-12-07T02:48:58;24.13;;;14.20;;
66751;SDS011;53663;42.676;23.238;2023-12-07T02:51:24;27.98;;;15.07;;
66751;SDS011;53663;42.676;23.238;2023-12-07T02:53:50;24.85;;;14.80;;
66751;SDS011;53663;42.676;23.238;2023-12-07T02:56:15;29.13;;;15.30;;
66751;SDS011;53663;42.676;23.238;2023-12-07T02:58:41;24.60;;;14.10;;
66751;SDS011;53663;42.676;23.238;2023-12-07T03:01:06;25.27;;;14.52;;
66751;SDS011;53663;42.676;23.238;2023-12-07T03:03:33;22.63;;;13.65;;
66751;SDS011;53663;42.676;23.238;2023-12-07T03:05:58;24.52;;;13.48;;
66751;SDS011;53663;42.676;23.238;2023-12-07T03:08:24;21.33;;;13.05;;
66751;SDS011;53663;42.676;23.238;2023-12-07T03:10:49;21.75;;;13.00;;
66751;SDS011;53663;42.676;23.238;2023-12-07T03:13:15;20.60;;;12.02;;
66751;SDS011;53663;42.676;23.238;2023-12-07T03:15:40;19.67;;;11.73;;
66751;SDS011;53663;42.676;23.238;2023-12-07T03:18:06;25.70;;;12.25;;
66751;SDS011;53663;42.676;23.238;2023-12-07T03:20:32;18.92;;;11.07;;
66751;SDS011;53663;42.676;23.238;2023-12-07T03:22:59;20.30;;;11.10;;
66751;SDS011;53663;42.676;23.238;2023-12-07T03:25:24;21.00;;;10.68;;
66751;SDS011;53663;42.676;23.238;2023-12-07T03:27:50;20.10;;;11.27;;
66751;SDS011;53663;42.676;23.238;2023-12-07T03:30:16;18.58;;;10.85;;
66751;SDS011;53663;42.676;23.238;2023-12-07T03:32:41;18.77;;;10.68;;
66751;SDS011;53663;42.676;23.238;2023-12-07T03:35:07;21.23;;;10.65;;
66751;SDS011;53663;42.676;23.238;2023-12-07T03:37:32;19.60;;;11.05;;
66751;SDS011;53663;42.676;23.238;2023-12-07T03:39:58;17.70;;;10.88;;
66751;SDS011;53663;42.676;23.238;2023-12-07T03:42:23;16.92;;;10.20;;
66751;SDS011;53663;42.676;23.238;2023-12-07T03:44:49;17.92;;;10.85;;
66751;SDS011;53663;42.676;23.238;2023-12-07T03:47:14;20.38;;;11.80;;
66751;SDS011;53663;42.676;23.238;2023-12-07T03:49:40;19.45;;;11.05;;
66751;SDS011;53663;42.676;23.238;2023-12-07T03:52:06;23.25;;;12.50;;
66751;SDS011;53663;42.676;23.238;2023-12-07T03:54:32;23.02;;;14.05;;
66751;SDS011;53663;42.676;23.238;2023-12-07T03:56:57;28.75;;;14.55;;
66751;SDS011;53663;42.676;23.238;2023-12-07T03:59:23;28.95;;;15.80;;
66751;SDS011;53663;42.676;23.238;2023-12-07T04:01:48;26.92;;;16.17;;
66751;SDS011;53663;42.676;23.238;2023-12-07T04:04:14;25.15;;;14.80;;
66751;SDS011;53663;42.676;23.238;2023-12-07T04:06:40;27.50;;;15.10;;
66751;SDS011;53663;42.676;23.238;2023-12-07T04:09:05;23.50;;;14.65;;
66751;SDS011;53663;42.676;23.238;2023-12-07T04:11:31;27.55;;;15.15;;
66751;SDS011;53663;42.676;23.238;2023-12-07T04:13:56;23.63;;;13.60;;
66751;SDS011;53663;42.676;23.238;2023-12-07T04:16:22;23.40;;;13.70;;
66751;SDS011;53663;42.676;23.238;2023-12-07T04:18:47;20.63;;;13.23;;
66751;SDS011;53663;42.676;23.238;2023-12-07T04:21:13;23.67;;;13.80;;
66751;SDS011;53663;42.676;23.238;2023-12-07T04:23:38;21.48;;;12.48;;
66751;SDS011;53663;42.676;23.238;2023-12-07T04:26:04;21.25;;;12.05;;
66751;SDS011;53663;42.676;23.238;2023-12-07T04:28:30;20.60;;;12.13;;
66751;SDS011;53663;42.676;23.238;2023-12-07T04:30:56;20.25;;;11.88;;
66751;SDS011;53663;42.676;23.238;2023-12-07T04:33:21;17.60;;;10.18;;
66751;SDS011;53663;42.676;23.238;2023-12-07T04:35:47;18.67;;;10.50;;
66751;SDS011;53663;42.676;23.238;2023-12-07T04:38:12;18.33;;;11.50;;
66751;SDS011;53663;42.676;23.238;2023-12-07T04:40:38;17.65;;;10.30;;
66751;SDS011;53663;42.676;23.238;2023-12-07T04:43:03;19.38;;;11.30;;
66751;SDS011;53663;42.676;23.238;2023-12-07T04:45:29;17.90;;;11.40;;
66751;SDS011;53663;42.676;23.238;2023-12-07T04:47:54;17.30;;;11.18;;
66751;SDS011;53663;42.676;23.238;2023-12-07T04:50:22;19.48;;;10.95;;
66751;SDS011;53663;42.676;23.238;2023-12-07T04:52:47;19.05;;;11.23;;
66751;SDS011;53663;42.676;23.238;2023-12-07T04:55:13;20.40;;;11.27;;
66751;SDS011;53663;42.676;23.238;2023-12-07T04:57:40;16.60;;;10.52;;
66751;SDS011;53663;42.676;23.238;2023-12-07T05:00:06;17.55;;;10.32;;
66751;SDS011;53663;42.676;23.238;2023-12-07T05:02:31;17.83;;;10.30;;
66751;SDS011;53663;42.676;23.238;2023-12-07T05:04:58;17.30;;;10.18;;
66751;SDS011;53663;42.676;23.238;2023-12-07T05:07:23;16.35;;;10.30;;
66751;SDS011;53663;42.676;23.238;2023-12-07T05:09:49;13.48;;;8.70;;
66751;SDS011;53663;42.676;23.238;2023-12-07T05:12:16;12.95;;;8.43;;
66751;SDS011;53663;42.676;23.238;2023-12-07T05:14:42;16.55;;;9.10;;
66751;SDS011;53663;42.676;23.238;2023-12-07T05:17:07;12.27;;;8.23;;
66751;SDS011;53663;42.676;23.238;2023-12-07T05:19:33;12.77;;;7.55;;
66751;SDS011;53663;42.676;23.238;2023-12-07T05:21:59;13.23;;;8.32;;
66751;SDS011;53663;42.676;23.238;2023-12-07T05:24:25;15.05;;;8.40;;
66751;SDS011;53663;42.676;23.238;2023-12-07T05:26:50;17.40;;;9.63;;
66751;SDS011;53663;42.676;23.238;2023-12-07T05:29:16;16.65;;;9.63;;
66751;SDS011;53663;42.676;23.238;2023-12-07T05:31:42;16.52;;;9.48;;
66751;SDS011;53663;42.676;23.238;2023-12-07T05:34:08;16.50;;;9.75;;
66751;SDS011;53663;42.676;23.238;2023-12-07T05:36:33;15.90;;;9.20;;
66751;SDS011;53663;42.676;23.238;2023-12-07T05:38:59;18.95;;;9.65;;
66751;SDS011;53663;42.676;23.238;2023-12-07T05:41:24;17.35;;;9.88;;
66751;SDS011;53663;42.676;23.238;2023-12-07T05:43:50;18.77;;;10.63;;
66751;SDS011;53663;42.676;23.238;2023-12-07T05:46:17;14.18;;;8.88;;
66751;SDS011;53663;42.676;23.238;2023-12-07T05:48:43;14.07;;;8.70;;
66751;SDS011;53663;42.676;23.238;2023-12-07T05:51:12;15.68;;;10.05;;
66751;SDS011;53663;42.676;23.238;2023-12-07T05:53:39;15.45;;;9.98;;
66751;SDS011;53663;42.676;23.238;2023-12-07T05:56:05;17.00;;;10.10;;
66751;SDS011;53663;42.676;23.238;2023-12-07T05:58:31;21.20;;;10.65;;
66751;SDS011;53663;42.676;23.238;2023-12-07T06:00:57;15.55;;;9.45;;
66751;SDS011;53663;42.676;23.238;2023-12-07T06:03:24;16.40;;;9.98;;
66751;SDS011;53663;42.676;23.238;2023-12-07T06:05:51;15.82;;;9.38;;
66751;SDS011;53663;42.676;23.238;2023-12-07T06:08:17;17.63;;;10.30;;
66751;SDS011;53663;42.676;23.238;2023-12-07T06:10:42;18.38;;;10.32;;
66751;SDS011;53663;42.676;23.238;2023-12-07T06:13:08;16.17;;;10.48;;
66751;SDS011;53663;42.676;23.238;2023-12-07T06:15:33;19.10;;;9.68;;
66751;SDS011;53663;42.676;23.238;2023-12-07T06:17:59;18.48;;;10.13;;
66751;SDS011;53663;42.676;23.238;2023-12-07T06:20:25;15.50;;;10.32;;
66751;SDS011;53663;42.676;23.238;2023-12-07T06:22:50;15.30;;;9.05;;
66751;SDS011;53663;42.676;23.238;2023-12-07T06:25:16;15.13;;;8.48;;
66751;SDS011;53663;42.676;23.238;2023-12-07T06:27:41;12.32;;;8.27;;
66751;SDS011;53663;42.676;23.238;2023-12-07T06:30:07;12.77;;;7.85;;
66751;SDS011;53663;42.676;23.238;2023-12-07T06:32:33;15.77;;;9.50;;
66751;SDS011;53663;42.676;23.238;2023-12-07T06:34:59;16.25;;;9.32;;
66751;SDS011;53663;42.676;23.238;2023-12-07T06:37:25;13.60;;;9.18;;
66751;SDS011;53663;42.676;23.238;2023-12-07T06:39:51;18.25;;;10.10;;
66751;SDS011;53663;42.676;23.238;2023-12-07T06:42:16;15.15;;;9.27;;
66751;SDS011;53663;42.676;23.238;2023-12-07T06:44:48;17.65;;;10.05;;
66751;SDS011;53663;42.676;23.238;2023-12-07T06:47:14;20.27;;;10.73;;
66751;SDS011;53663;42.676;23.238;2023-12-07T06:49:40;19.13;;;10.60;;
66751;SDS011;53663;42.676;23.238;2023-12-07T06:52:06;20.25;;;11.02;;
66751;SDS011;53663;42.676;23.238;2023-12-07T06:54:31;16.35;;;9.52;;
66751;SDS011;53663;42.676;23.238;2023-12-07T06:56:58;18.00;;;9.80;;
66751;SDS011;53663;42.676;23.238;2023-12-07T06:59:23;19.13;;;9.32;;
66751;SDS011;53663;42.676;23.238;2023-12-07T07:01:49;20.33;;;9.75;;
66751;SDS011;53663;42.676;23.238;2023-12-07T07:04:14;19.95;;;11.07;;
66751;SDS011;53663;42.676;23.238;2023-12-07T07:06:41;17.85;;;11.10;;
66751;SDS011;53663;42.676;23.238;2023-12-07T07:09:06;24.25;;;11.30;;
66751;SDS011;53663;42.676;23.238;2023-12-07T07:11:32;18.92;;;9.93;;
66751;SDS011;53663;42.676;23.238;2023-12-07T07:13:57;16.92;;;9.48;;
66751;SDS011;53663;42.676;23.238;2023-12-07T07:16:23;17.02;;;9.57;;
66751;SDS011;53663;42.676;23.238;2023-12-07T07:18:49;15.95;;;8.40;;
66751;SDS011;53663;42.676;23.238;2023-12-07T07:21:15;17.20;;;8.48;;
66751;SDS011;53663;42.676;23.238;2023-12-07T07:23:40;16.45;;;8.02;;
66751;SDS011;53663;42.676;23.238;2023-12-07T07:26:06;20.52;;;9.75;;
66751;SDS011;53663;42.676;23.238;2023-12-07T07:28:31;23.23;;;10.70;;
66751;SDS011;53663;42.676;23.238;2023-12-07T07:30:57;18.52;;;10.13;;
66751;SDS011;53663;42.676;23.238;2023-12-07T07:33:23;18.88;;;9.48;;
66751;SDS011;53663;42.676;23.238;2023-12-07T07:35:48;19.23;;;8.55;;
66751;SDS011;53663;42.676;23.238;2023-12-07T07:38:14;15.05;;;7.82;;
66751;SDS011;53663;42.676;23.238;2023-12-07T07:40:39;11.93;;;7.63;;
66751;SDS011;53663;42.676;23.238;2023-12-07T07:43:05;13.82;;;8.20;;
66751;SDS011;53663;42.676;23.238;2023-12-07T07:45:31;13.25;;;8.90;;
66751;SDS011;53663;42.676;23.238;2023-12-07T07:47:56;17.73;;;8.63;;
66751;SDS011;53663;42.676;23.238;2023-12-07T07:50:22;14.02;;;8.02;;
66751;SDS011;53663;42.676;23.238;2023-12-07T07:52:47;16.55;;;9.07;;
66751;SDS011;53663;42.676;23.238;2023-12-07T07:55:13;12.65;;;8.07;;
66751;SDS011;53663;42.676;23.238;2023-12-07T07:57:38;15.60;;;7.28;;
66751;SDS011;53663;42.676;23.238;2023-12-07T08:00:04;10.57;;;6.72;;
66751;SDS011;53663;42.676;23.238;2023-12-07T08:02:33;12.20;;;6.03;;
66751;SDS011;53663;42.676;23.238;2023-12-07T08:04:59;12.27;;;6.00;;
66751;SDS011;53663;42.676;23.238;2023-12-07T08:07:24;13.68;;;5.40;;
66751;SDS011;53663;42.676;23.238;2023-12-07T08:09:50;10.48;;;5.25;;
66751;SDS011;53663;42.676;23.238;2023-12-07T08:12:16;11.25;;;5.97;;
66751;SDS011;53663;42.676;23.238;2023-12-07T08:14:41;9.13;;;4.93;;
66751;SDS011;53663;42.676;23.238;2023-12-07T08:17:09;9.38;;;5.57;;
66751;SDS011;53663;42.676;23.238;2023-12-07T08:19:34;10.57;;;5.00;;
66751;SDS011;53663;42.676;23.238;2023-12-07T08:22:00;11.77;;;5.15;;
66751;SDS011;53663;42.676;23.238;2023-12-07T08:24:26;9.85;;;4.70;;
66751;SDS011;53663;42.676;23.238;2023-12-07T08:26:51;7.03;;;4.45;;
66751;SDS011;53663;42.676;23.238;2023-12-07T08:29:17;7.85;;;4.40;;
66751;SDS011;53663;42.676;23.238;2023-12-07T08:31:42;6.43;;;3.97;;
66751;SDS011;53663;42.676;23.238;2023-12-07T08:49:13;7.45;;;4.03;;
66751;SDS011;53663;42.676;23.238;2023-12-07T08:51:38;6.38;;;4.07;;
66751;SDS011;53663;42.676;23.238;2023-12-07T08:54:04;4.53;;;3.28;;
66751;SDS011;53663;42.676;23.238;2023-12-07T08:56:30;5.72;;;2.47;;
66751;SDS011;53663;42.676;23.238;2023-12-07T08:58:56;4.13;;;3.00;;
66751;SDS011;53663;42.676;23.238;2023-12-07T09:01:21;4.38;;;2.60;;
66751;SDS011;53663;42.676;23.238;2023-12-07T09:03:47;4.10;;;2.65;;
66751;SDS011;53663;42.676;23.238;2023-12-07T09:06:12;3.45;;;2.58;;
66751;SDS011;53663;42.676;23.238;2023-12-07T09:08:38;2.28;;;2.08;;
66751;SDS011;53663;42.676;23.238;2023-12-07T09:11:03;3.72;;;2.55;;
66751;SDS011;53663;42.676;23.238;2023-12-07T09:13:29;4.40;;;2.65;;
66751;SDS011;53663;42.676;23.238;2023-12-07T09:15:55;6.38;;;3.00;;
66751;SDS011;53663;42.676;23.238;2023-12-07T09:18:20;6.55;;;3.30;;
66751;SDS011;53663;42.676;23.238;2023-12-07T09:20:46;8.98;;;3.72;;
66751;SDS011;53663;42.676;23.238;2023-12-07T09:23:11;8.25;;;3.60;;
66751;SDS011;53663;42.676;23.238;2023-12-07T09:25:40;8.65;;;2.92;;
66751;SDS011;53663;42.676;23.238;2023-12-07T09:28:08;16.92;;;4.65;;
66751;SDS011;53663;42.676;23.238;2023-12-07T09:30:34;16.30;;;5.03;;
66751;SDS011;53663;42.676;23.238;2023-12-07T09:33:00;4.82;;;2.70;;
66751;SDS011;53663;42.676;23.238;2023-12-07T09:35:28;7.00;;;2.10;;
66751;SDS011;53663;42.676;23.238;2023-12-07T09:37:53;5.88;;;2.67;;
66751;SDS011;53663;42.676;23.238;2023-12-07T09:40:20;4.47;;;2.17;;
66751;SDS011;53663;42.676;23.238;2023-12-07T09:42:47;5.28;;;2.25;;
66751;SDS011;53663;42.676;23.238;2023-12-07T09:45:16;2.55;;;2.00;;
66751;SDS011;53663;42.676;23.238;2023-12-07T09:47:43;6.85;;;1.92;;
66751;SDS011;53663;42.676;23.238;2023-12-07T09:50:13;2.42;;;1.75;;
66751;SDS011;53663;42.676;23.238;2023-12-07T09:52:41;2.40;;;1.73;;
66751;SDS011;53663;42.676;23.238;2023-12-07T09:55:07;2.80;;;1.90;;
66751;SDS011;53663;42.676;23.238;2023-12-07T09:57:34;2.00;;;1.80;;
66751;SDS011;53663;42.676;23.238;2023-12-07T10:00:02;3.40;;;2.03;;
66751;SDS011;53663;42.676;23.238;2023-12-07T10:02:32;1.55;;;1.45;;
66751;SDS011;53663;42.676;23.238;2023-12-07T10:05:05;2.38;;;1.90;;
66751;SDS011;53663;42.676;23.238;2023-12-07T10:07:34;1.88;;;1.60;;
66751;SDS011;53663;42.676;23.238;2023-12-07T10:10:03;2.05;;;1.60;;
66751;SDS011;53663;42.676;23.238;2023-12-07T10:12:30;8.55;;;2.00;;
66751;SDS011;53663;42.676;23.238;2023-12-07T10:14:56;2.17;;;1.75;;
66751;SDS011;53663;42.676;23.238;2023-12-07T10:17:21;1.65;;;1.45;;
66751;SDS011;53663;42.676;23.238;2023-12-07T10:20:06;1.60;;;1.45;;
66751;SDS011;53663;42.676;23.238;2023-12-07T10:22:38;2.20;;;1.42;;
66751;SDS011;53663;42.676;23.238;2023-12-07T10:25:04;2.25;;;1.85;;
66751;SDS011;53663;42.676;23.238;2023-12-07T10:27:30;1.48;;;1.38;;
66751;SDS011;53663;42.676;23.238;2023-12-07T10:29:58;1.88;;;1.67;;
66751;SDS011;53663;42.676;23.238;2023-12-07T10:32:24;1.98;;;1.75;;
66751;SDS011;53663;42.676;23.238;2023-12-07T10:34:50;2.15;;;1.80;;
66751;SDS011;53663;42.676;23.238;2023-12-07T10:37:15;2.58;;;1.75;;
66751;SDS011;53663;42.676;23.238;2023-12-07T10:39:41;2.20;;;1.80;;
66751;SDS011;53663;42.676;23.238;2023-12-07T10:42:08;2.20;;;1.70;;
66751;SDS011;53663;42.676;23.238;2023-12-07T10:44:39;2.33;;;1.77;;
66751;SDS011;53663;42.676;23.238;2023-12-07T10:47:07;4.00;;;1.75;;
66751;SDS011;53663;42.676;23.238;2023-12-07T10:49:35;5.57;;;2.40;;
66751;SDS011;53663;42.676;23.238;2023-12-07T10:52:08;14.00;;;3.90;;
66751;SDS011;53663;42.676;23.238;2023-12-07T10:54:43;18.02;;;5.25;;
66751;SDS011;53663;42.676;23.238;2023-12-07T10:57:17;12.95;;;2.83;;
66751;SDS011;53663;42.676;23.238;2023-12-07T10:59:47;9.25;;;3.88;;
66751;SDS011;53663;42.676;23.238;2023-12-07T11:02:15;4.40;;;2.40;;
66751;SDS011;53663;42.676;23.238;2023-12-07T11:04:42;5.90;;;2.85;;
66751;SDS011;53663;42.676;23.238;2023-12-07T11:07:10;6.13;;;2.25;;
66751;SDS011;53663;42.676;23.238;2023-12-07T11:09:44;4.47;;;2.08;;
66751;SDS011;53663;42.676;23.238;2023-12-07T11:12:35;3.40;;;1.90;;
66751;SDS011;53663;42.676;23.238;2023-12-07T11:15:04;5.78;;;2.25;;
66751;SDS011;53663;42.676;23.238;2023-12-07T11:17:30;7.65;;;2.88;;
66751;SDS011;53663;42.676;23.238;2023-12-07T11:20:18;3.67;;;2.00;;
66751;SDS011;53663;42.676;23.238;2023-12-07T11:22:44;6.28;;;2.20;;
66751;SDS011;53663;42.676;23.238;2023-12-07T11:25:10;3.42;;;2.30;;
66751;SDS011;53663;42.676;23.238;2023-12-07T11:27:35;4.93;;;2.45;;
66751;SDS011;53663;42.676;23.238;2023-12-07T11:30:03;3.42;;;2.30;;
66751;SDS011;53663;42.676;23.238;2023-12-07T11:32:29;5.35;;;2.00;;
66751;SDS011;53663;42.676;23.238;2023-12-07T11:34:58;3.33;;;2.25;;
66751;SDS011;53663;42.676;23.238;2023-12-07T11:37:27;5.95;;;2.30;;
66751;SDS011;53663;42.676;23.238;2023-12-07T11:40:44;3.15;;;1.60;;
66751;SDS011;53663;42.676;23.238;2023-12-07T11:46:03;4.07;;;2.40;;
66751;SDS011;53663;42.676;23.238;2023-12-07T11:48:29;3.13;;;2.13;;
66751;SDS011;53663;42.676;23.238;2023-12-07T11:51:02;3.65;;;2.40;;
66751;SDS011;53663;42.676;23.238;2023-12-07T11:53:36;10.27;;;4.43;;
66751;SDS011;53663;42.676;23.238;2023-12-07T11:56:02;16.98;;;6.07;;
66751;SDS011;53663;42.676;23.238;2023-12-07T11:58:29;9.48;;;3.83;;
66751;SDS011;53663;42.676;23.238;2023-12-07T12:00:57;4.40;;;2.60;;
66751;SDS011;53663;42.676;23.238;2023-12-07T12:03:26;9.45;;;4.07;;
66751;SDS011;53663;42.676;23.238;2023-12-07T12:05:52;4.15;;;1.60;;
66751;SDS011;53663;42.676;23.238;2023-12-07T12:08:19;1.70;;;1.60;;
66751;SDS011;53663;42.676;23.238;2023-12-07T12:10:46;2.75;;;1.70;;
66751;SDS011;53663;42.676;23.238;2023-12-07T12:13:14;1.20;;;1.20;;
66751;SDS011;53663;42.676;23.238;2023-12-07T12:15:40;1.50;;;1.40;;
66751;SDS011;53663;42.676;23.238;2023-12-07T12:18:06;2.13;;;1.80;;
66751;SDS011;53663;42.676;23.238;2023-12-07T12:20:34;1.33;;;1.27;;
66751;SDS011;53663;42.676;23.238;2023-12-07T12:23:00;1.60;;;1.50;;
66751;SDS011;53663;42.676;23.238;2023-12-07T12:25:27;2.25;;;1.55;;
66751;SDS011;53663;42.676;23.238;2023-12-07T12:27:56;3.13;;;2.33;;
66751;SDS011;53663;42.676;23.238;2023-12-07T12:30:23;1.40;;;1.30;;
66751;SDS011;53663;42.676;23.238;2023-12-07T12:32:50;5.50;;;2.70;;
66751;SDS011;53663;42.676;23.238;2023-12-07T12:35:19;1.92;;;1.75;;
66751;SDS011;53663;42.676;23.238;2023-12-07T12:37:45;2.08;;;1.90;;
66751;SDS011;53663;42.676;23.238;2023-12-07T12:40:12;2.78;;;1.80;;
66751;SDS011;53663;42.676;23.238;2023-12-07T12:42:43;2.33;;;1.83;;
66751;SDS011;53663;42.676;23.238;2023-12-07T12:45:16;2.75;;;2.30;;
66751;SDS011;53663;42.676;23.238;2023-12-07T12:47:46;2.97;;;2.10;;
66751;SDS011;53663;42.676;23.238;2023-12-07T12:50:13;4.18;;;2.72;;
66751;SDS011;53663;42.676;23.238;2023-12-07T12:52:58;4.20;;;2.75;;
66751;SDS011;53663;42.676;23.238;2023-12-07T12:55:28;3.63;;;2.40;;
66751;SDS011;53663;42.676;23.238;2023-12-07T12:57:55;2.13;;;1.92;;
66751;SDS011;53663;42.676;23.238;2023-12-07T13:00:22;2.50;;;2.10;;
66751;SDS011;53663;42.676;23.238;2023-12-07T13:02:49;2.40;;;2.05;;
66751;SDS011;53663;42.676;23.238;2023-12-07T13:05:15;1.80;;;1.70;;
66751;SDS011;53663;42.676;23.238;2023-12-07T13:07:40;2.25;;;1.80;;
66751;SDS011;53663;42.676;23.238;2023-12-07T13:10:06;2.20;;;2.00;;
66751;SDS011;53663;42.676;23.238;2023-12-07T13:12:33;2.22;;;1.80;;
66751;SDS011;53663;42.676;23.238;2023-12-07T13:15:00;2.25;;;1.90;;
66751;SDS011;53663;42.676;23.238;2023-12-07T13:17:26;2.40;;;2.08;;
66751;SDS011;53663;42.676;23.238;2023-12-07T13:19:51;3.10;;;2.50;;
66751;SDS011;53663;42.676;23.238;2023-12-07T13:22:17;3.75;;;2.67;;
66751;SDS011;53663;42.676;23.238;2023-12-07T13:24:43;3.30;;;2.33;;
66751;SDS011;53663;42.676;23.238;2023-12-07T13:27:10;2.65;;;2.05;;
66751;SDS011;53663;42.676;23.238;2023-12-07T13:29:36;4.07;;;2.67;;
66751;SDS011;53663;42.676;23.238;2023-12-07T13:32:01;3.25;;;2.50;;
66751;SDS011;53663;42.676;23.238;2023-12-07T13:34:27;4.13;;;2.53;;
66751;SDS011;53663;42.676;23.238;2023-12-07T13:36:53;6.03;;;2.97;;
66751;SDS011;53663;42.676;23.238;2023-12-07T13:39:19;7.22;;;3.67;;
66751;SDS011;53663;42.676;23.238;2023-12-07T13:41:47;9.05;;;3.88;;
66751;SDS011;53663;42.676;23.238;2023-12-07T13:44:15;10.52;;;4.00;;
66751;SDS011;53663;42.676;23.238;2023-12-07T13:46:42;6.97;;;4.47;;
66751;SDS011;53663;42.676;23.238;2023-12-07T13:49:08;10.40;;;4.32;;
66751;SDS011;53663;42.676;23.238;2023-12-07T13:51:33;11.77;;;4.28;;
66751;SDS011;53663;42.676;23.238;2023-12-07T13:53:59;6.30;;;3.60;;
66751;SDS011;53663;42.676;23.238;2023-12-07T13:56:24;6.20;;;3.50;;
66751;SDS011;53663;42.676;23.238;2023-12-07T13:58:50;7.60;;;3.35;;
66751;SDS011;53663;42.676;23.238;2023-12-07T14:01:16;5.68;;;3.65;;
66751;SDS011;53663;42.676;23.238;2023-12-07T14:03:43;9.85;;;4.07;;
66751;SDS011;53663;42.676;23.238;2023-12-07T14:06:08;11.50;;;5.32;;
66751;SDS011;53663;42.676;23.238;2023-12-07T14:08:34;13.45;;;5.32;;
66751;SDS011;53663;42.676;23.238;2023-12-07T14:10:59;11.18;;;6.07;;
66751;SDS011;53663;42.676;23.238;2023-12-07T14:13:25;13.77;;;5.75;;
66751;SDS011;53663;42.676;23.238;2023-12-07T14:15:51;15.13;;;6.18;;
66751;SDS011;53663;42.676;23.238;2023-12-07T14:18:16;12.52;;;5.53;;
66751;SDS011;53663;42.676;23.238;2023-12-07T14:20:42;4.68;;;3.17;;
66751;SDS011;53663;42.676;23.238;2023-12-07T14:23:09;5.43;;;3.70;;
66751;SDS011;53663;42.676;23.238;2023-12-07T14:25:34;6.60;;;3.92;;
66751;SDS011;53663;42.676;23.238;2023-12-07T14:28:00;6.55;;;4.10;;
66751;SDS011;53663;42.676;23.238;2023-12-07T14:30:25;6.15;;;4.30;;
66751;SDS011;53663;42.676;23.238;2023-12-07T14:32:51;6.43;;;3.90;;
66751;SDS011;53663;42.676;23.238;2023-12-07T14:35:20;6.03;;;4.28;;
66751;SDS011;53663;42.676;23.238;2023-12-07T14:37:46;7.38;;;4.90;;